Time;durP1;ratioP1;P1;durP2;ratioP2;P2;SDS_P1;SDS_P2;PMS_P1;PMS_P2;Temp;Humidity;BMP_temperature;BMP_pressure;BME280_temperature;BME280_humidity;BME280_pressure;Samples;Min_cycle;Max_cycle;Signal;HPM_P1;HPM_P2
2022/03/07 00:00:04;;;;;;;;;;;0.60;99.90;;;;;;4174729;28;19931;-42
2022/03/07 00:02:06;;;;;;;;;;;0.60;99.90;;;;;;4171542;28;20351;-44
2022/03/07 00:04:08;;;;;;;;;;;0.70;99.90;;;;;;4174351;28;19963;-44
2022/03/07 00:06:10;;;;;;;;;;;0.70;99.90;;;;;;4161872;28;19960;-42
2022/03/07 00:08:13;;;;;;;;;;;0.80;99.90;;;;;;4175868;28;19929;-44
2022/03/07 00:10:34;;;;;;;;;;;0.80;99.90;;;;;;4175019;28;19957;-44
2022/03/07 00:12:37;;;;;;;;;;;1.00;99.90;;;;;;4169214;28;20432;-44
2022/03/07 00:14:38;;;;;;;;;;;1.00;99.90;;;;;;4174567;28;19939;-44
2022/03/07 00:16:40;;;;;;;;;;;1.10;99.90;;;;;;4161132;28;19929;-44
2022/03/07 00:18:42;;;;;;;;;;;1.00;99.90;;;;;;4174228;28;19931;-44
2022/03/07 00:20:44;;;;;;;;;;;1.00;99.90;;;;;;4169667;28;20415;-43
2022/03/07 00:22:46;;;;;;;;;;;0.90;99.90;;;;;;4165372;28;19925;-43
2022/03/07 00:24:48;;;;;;;;;;;0.90;99.90;;;;;;4165949;28;19983;-44
2022/03/07 00:26:50;;;;;;;;;;;0.90;99.90;;;;;;4172753;28;19978;-44
2022/03/07 00:28:52;;;;;;;;;;;1.00;99.90;;;;;;4170961;28;19936;-44
2022/03/07 00:30:54;;;;;;;;;;;1.00;99.90;;;;;;4170980;28;20305;-43
2022/03/07 00:32:56;;;;;;;;;;;0.90;99.90;;;;;;4176800;28;19933;-43
2022/03/07 00:34:58;;;;;;;;;;;0.90;99.90;;;;;;4177921;28;19929;-44
2022/03/07 00:37:00;;;;;;;;;;;0.80;99.90;;;;;;4171112;28;19983;-43
2022/03/07 00:39:02;;;;;;;;;;;0.80;99.90;;;;;;4170075;28;19971;-43
2022/03/07 00:41:04;;;;;;;;;;;0.70;99.90;;;;;;4179161;28;19979;-46
2022/03/07 00:43:07;;;;;;;;;;;0.70;99.90;;;;;;4174046;28;20412;-45
2022/03/07 00:45:10;;;;;;;;;;;0.70;99.90;;;;;;4177291;28;20376;-44
2022/03/07 00:47:12;;;;;;;;;;;0.70;99.90;;;;;;4178225;28;19925;-44
2022/03/07 00:49:14;;;;;;;;;;;0.70;99.90;;;;;;4178247;28;20616;-46
2022/03/07 00:51:15;;;;;;;;;;;0.70;99.90;;;;;;4179207;28;19925;-46
2022/03/07 00:53:19;;;;;;;;;;;0.80;99.90;;;;;;4168861;28;19929;-44
2022/03/07 00:55:21;;;;;;;;;;;0.80;99.90;;;;;;4167903;28;20348;-44
2022/03/07 00:57:22;;;;;;;;;;;0.90;99.90;;;;;;4164052;28;19925;-45
2022/03/07 00:59:24;;;;;;;;;;;0.90;99.90;;;;;;4178452;28;19932;-44
2022/03/07 01:01:26;;;;;;;;;;;0.90;99.90;;;;;;4176731;28;20015;-44
2022/03/07 01:03:28;;;;;;;;;;;0.80;99.90;;;;;;4171251;28;19994;-44
2022/03/07 01:05:30;;;;;;;;;;;0.80;99.90;;;;;;4177910;28;19939;-47
2022/03/07 01:07:32;;;;;;;;;;;0.90;99.90;;;;;;4178228;28;19925;-44
2022/03/07 01:09:34;;;;;;;;;;;0.80;99.90;;;;;;4177846;28;20295;-45
2022/03/07 01:11:37;;;;;;;;;;;0.70;99.90;;;;;;4174272;28;19925;-46
2022/03/07 01:13:38;;;;;;;;;;;0.70;99.90;;;;;;4164818;28;19928;-45
2022/03/07 01:15:40;;;;;;;;;;;0.60;99.90;;;;;;4168439;28;20003;-42
2022/03/07 01:17:43;;;;;;;;;;;0.60;99.90;;;;;;4175199;28;19931;-44
2022/03/07 01:19:44;;;;;;;;;;;0.60;99.90;;;;;;4177669;28;19960;-44
2022/03/07 01:21:46;;;;;;;;;;;0.70;99.90;;;;;;4177942;28;20293;-44
2022/03/07 01:23:48;;;;;;;;;;;0.70;99.90;;;;;;4178536;28;20000;-44
2022/03/07 01:25:50;;;;;;;;;;;0.70;99.90;;;;;;4176109;28;19936;-43
2022/03/07 01:27:54;;;;;;;;;;;0.70;99.90;;;;;;4177516;28;19924;-45
2022/03/07 01:29:56;;;;;;;;;;;0.70;99.90;;;;;;4177233;28;20321;-44
2022/03/07 01:31:58;;;;;;;;;;;0.70;99.90;;;;;;4178806;28;20225;-44
2022/03/07 01:34:00;;;;;;;;;;;0.70;99.90;;;;;;4173169;28;20397;-42
2022/03/07 01:36:02;;;;;;;;;;;0.70;99.90;;;;;;4170772;28;19928;-44
2022/03/07 01:38:04;;;;;;;;;;;0.70;99.90;;;;;;4170189;28;19940;-47
2022/03/07 01:40:06;;;;;;;;;;;0.70;99.90;;;;;;4176903;28;19970;-44
2022/03/07 01:42:08;;;;;;;;;;;0.80;99.90;;;;;;4176374;28;20040;-44
2022/03/07 01:44:20;;;;;;;;;;;0.80;99.90;;;;;;4175513;28;19928;-45
2022/03/07 01:46:22;;;;;;;;;;;0.80;99.90;;;;;;4176493;28;19975;-44
2022/03/07 01:48:24;;;;;;;;;;;0.70;99.90;;;;;;4162555;28;19933;-44
2022/03/07 01:50:26;;;;;;;;;;;0.70;99.90;;;;;;4176489;28;19960;-43
2022/03/07 01:52:27;;;;;;;;;;;0.70;99.90;;;;;;4177705;28;19987;-44
2022/03/07 01:54:30;;;;;;;;;;;0.70;99.90;;;;;;4175758;28;19975;-44
2022/03/07 01:56:32;;;;;;;;;;;0.70;99.90;;;;;;4173793;28;19929;-43
2022/03/07 01:58:34;;;;;;;;;;;0.70;99.90;;;;;;4176254;28;20385;-44
2022/03/07 02:00:36;;;;;;;;;;;0.80;99.90;;;;;;4176055;28;19928;-48
2022/03/07 02:02:38;;;;;;;;;;;0.90;99.90;;;;;;4177219;28;19925;-49
2022/03/07 02:04:40;;;;;;;;;;;1.00;99.90;;;;;;4177329;28;19971;-46
2022/03/07 02:06:43;;;;;;;;;;;1.00;99.90;;;;;;4165516;28;19933;-46
2022/03/07 02:08:46;;;;;;;;;;;1.10;99.90;;;;;;4170371;28;19925;-44
2022/03/07 02:10:47;;;;;;;;;;;1.10;99.90;;;;;;4178173;28;19929;-49
2022/03/07 02:12:49;;;;;;;;;;;1.10;99.90;;;;;;4178439;28;19986;-44
2022/03/07 02:14:51;;;;;;;;;;;1.10;99.90;;;;;;4176868;28;20400;-46
2022/03/07 02:16:53;;;;;;;;;;;1.10;99.90;;;;;;4171259;28;19929;-45
2022/03/07 02:18:55;;;;;;;;;;;1.10;99.90;;;;;;4172877;28;19971;-45
2022/03/07 02:21:01;;;;;;;;;;;1.10;99.90;;;;;;4177970;28;19928;-46
2022/03/07 02:23:03;;;;;;;;;;;1.10;99.90;;;;;;4163513;28;19925;-45
2022/03/07 02:25:05;;;;;;;;;;;1.10;99.90;;;;;;4169972;28;19952;-46
2022/03/07 02:27:08;;;;;;;;;;;1.10;99.90;;;;;;4169232;28;19978;-48
2022/03/07 02:29:12;;;;;;;;;;;1.20;99.90;;;;;;4167209;28;20024;-45
2022/03/07 02:31:18;;;;;;;;;;;1.10;99.90;;;;;;4165806;28;19932;-49
2022/03/07 02:33:20;;;;;;;;;;;1.10;99.90;;;;;;4175544;28;19933;-45
2022/03/07 02:35:22;;;;;;;;;;;1.10;99.90;;;;;;4176245;28;19929;-44
2022/03/07 02:37:24;;;;;;;;;;;1.10;99.90;;;;;;4175673;28;19968;-46
2022/03/07 02:39:26;;;;;;;;;;;1.10;99.90;;;;;;4178241;28;19925;-46
2022/03/07 02:41:28;;;;;;;;;;;1.20;99.90;;;;;;4168018;28;19933;-46
2022/03/07 02:43:30;;;;;;;;;;;1.20;99.90;;;;;;4169033;28;20166;-46
2022/03/07 02:45:32;;;;;;;;;;;1.30;99.90;;;;;;4176007;28;20475;-47
2022/03/07 02:47:33;;;;;;;;;;;1.40;99.90;;;;;;4177335;28;19924;-45
2022/03/07 02:49:35;;;;;;;;;;;1.40;99.90;;;;;;4165724;28;19930;-46
2022/03/07 02:51:37;;;;;;;;;;;1.30;99.90;;;;;;4175109;28;20479;-46
2022/03/07 02:53:39;;;;;;;;;;;1.30;99.90;;;;;;4176391;28;19936;-47
2022/03/07 02:55:41;;;;;;;;;;;1.40;99.90;;;;;;4177463;28;19929;-45
2022/03/07 02:57:43;;;;;;;;;;;1.40;99.90;;;;;;4165655;28;19983;-46
2022/03/07 02:59:45;;;;;;;;;;;1.40;99.90;;;;;;4164186;28;19968;-45
2022/03/07 03:01:48;;;;;;;;;;;1.40;99.90;;;;;;4164403;28;19975;-44
2022/03/07 03:03:50;;;;;;;;;;;1.30;99.90;;;;;;4169436;28;19929;-48
2022/03/07 03:05:54;;;;;;;;;;;1.40;99.90;;;;;;4177253;28;19928;-46
2022/03/07 03:07:56;;;;;;;;;;;1.40;99.90;;;;;;4170323;28;19925;-47
2022/03/07 03:09:58;;;;;;;;;;;1.40;99.90;;;;;;4174696;28;19971;-48
2022/03/07 03:12:00;;;;;;;;;;;1.40;99.90;;;;;;4178397;28;19928;-45
2022/03/07 03:14:02;;;;;;;;;;;1.40;99.90;;;;;;4174721;28;19935;-46
2022/03/07 03:16:05;;;;;;;;;;;1.50;99.90;;;;;;4172276;28;19933;-46
2022/03/07 03:18:07;;;;;;;;;;;1.50;99.90;;;;;;4164586;28;19925;-49
2022/03/07 03:20:12;;;;;;;;;;;1.50;99.90;;;;;;4161204;28;20015;-46
2022/03/07 03:22:14;;;;;;;;;;;1.40;99.90;;;;;;4171903;28;20221;-46
2022/03/07 03:24:17;;;;;;;;;;;1.40;99.90;;;;;;4170743;28;20020;-45
2022/03/07 03:26:18;;;;;;;;;;;1.50;99.90;;;;;;4172330;28;20007;-46
2022/03/07 03:28:21;;;;;;;;;;;1.40;99.90;;;;;;4177166;28;19933;-48
2022/03/07 03:30:23;;;;;;;;;;;1.50;99.90;;;;;;4175370;28;19950;-45
2022/03/07 03:32:26;;;;;;;;;;;1.50;99.90;;;;;;4175364;28;20397;-47
2022/03/07 03:34:30;;;;;;;;;;;1.50;99.90;;;;;;4176010;28;19929;-48
2022/03/07 03:36:32;;;;;;;;;;;1.50;99.90;;;;;;4163488;28;19948;-45
2022/03/07 03:38:34;;;;;;;;;;;1.50;99.90;;;;;;4173300;28;20001;-49
2022/03/07 03:40:36;;;;;;;;;;;1.50;99.90;;;;;;4173288;28;19931;-48
2022/03/07 03:42:38;;;;;;;;;;;1.50;99.90;;;;;;4167548;28;19960;-46
2022/03/07 03:44:40;;;;;;;;;;;1.50;99.90;;;;;;4171744;28;19933;-48
2022/03/07 03:46:42;;;;;;;;;;;1.40;99.90;;;;;;4163008;28;20420;-46
2022/03/07 03:48:44;;;;;;;;;;;1.40;99.90;;;;;;4169228;28;19982;-45
2022/03/07 03:50:46;;;;;;;;;;;1.40;99.90;;;;;;4173314;28;20546;-46
2022/03/07 03:52:48;;;;;;;;;;;1.40;99.90;;;;;;4161860;28;19932;-45
2022/03/07 03:54:50;;;;;;;;;;;1.40;99.90;;;;;;4170330;28;20016;-46
2022/03/07 03:56:52;;;;;;;;;;;1.50;99.90;;;;;;4173932;28;19929;-47
2022/03/07 03:58:53;;;;;;;;;;;1.50;99.90;;;;;;4166474;28;19961;-45
2022/03/07 04:00:55;;;;;;;;;;;1.50;99.90;;;;;;4172386;28;20390;-45
2022/03/07 04:02:57;;;;;;;;;;;1.50;99.90;;;;;;4175415;28;20330;-45
2022/03/07 04:04:59;;;;;;;;;;;1.50;99.90;;;;;;4166296;28;20024;-46
2022/03/07 04:07:01;;;;;;;;;;;1.50;99.90;;;;;;4166970;28;20027;-47
2022/03/07 04:09:04;;;;;;;;;;;1.40;99.90;;;;;;4174990;28;19980;-48
2022/03/07 04:11:05;;;;;;;;;;;1.30;99.90;;;;;;4164846;28;19968;-45
2022/03/07 04:13:07;;;;;;;;;;;1.30;99.90;;;;;;4163235;28;19925;-46
2022/03/07 04:15:10;;;;;;;;;;;1.30;99.90;;;;;;4165826;28;19932;-45
2022/03/07 04:17:12;;;;;;;;;;;1.30;99.90;;;;;;4169877;28;19933;-45
2022/03/07 04:19:15;;;;;;;;;;;1.30;99.90;;;;;;4175287;28;19925;-45
2022/03/07 04:21:17;;;;;;;;;;;1.30;99.90;;;;;;4172428;28;19924;-45
2022/03/07 04:23:21;;;;;;;;;;;1.20;99.90;;;;;;4175992;28;19929;-45
2022/03/07 04:25:23;;;;;;;;;;;1.30;99.90;;;;;;4175543;28;19933;-45
2022/03/07 04:27:24;;;;;;;;;;;1.30;99.90;;;;;;4175802;28;20426;-47
2022/03/07 04:29:26;;;;;;;;;;;1.30;99.90;;;;;;4169762;28;19925;-49
2022/03/07 04:31:29;;;;;;;;;;;1.30;99.90;;;;;;4167963;28;19932;-45
2022/03/07 04:33:30;;;;;;;;;;;1.30;99.90;;;;;;4167425;28;19929;-44
2022/03/07 04:35:32;;;;;;;;;;;1.30;99.90;;;;;;4175372;28;19991;-45
2022/03/07 04:37:35;;;;;;;;;;;1.40;99.90;;;;;;4173422;28;19931;-45
2022/03/07 04:39:36;;;;;;;;;;;1.30;99.90;;;;;;4170140;28;19952;-47
2022/03/07 04:41:39;;;;;;;;;;;1.30;99.90;;;;;;4162783;28;19931;-47
2022/03/07 04:43:41;;;;;;;;;;;1.30;99.90;;;;;;4164623;28;20381;-45
2022/03/07 04:45:43;;;;;;;;;;;1.30;99.90;;;;;;4170835;28;19935;-46
2022/03/07 04:47:45;;;;;;;;;;;1.30;99.90;;;;;;4176186;28;19935;-48
2022/03/07 04:49:47;;;;;;;;;;;1.30;99.90;;;;;;4164185;28;19972;-46
2022/03/07 04:51:48;;;;;;;;;;;1.30;99.90;;;;;;4172022;28;19929;-48
2022/03/07 04:53:50;;;;;;;;;;;1.30;99.90;;;;;;4172994;28;20333;-45
2022/03/07 04:55:52;;;;;;;;;;;1.30;99.90;;;;;;4171711;28;19929;-47
2022/03/07 04:57:54;;;;;;;;;;;1.30;99.90;;;;;;4173980;28;19936;-46
2022/03/07 04:59:56;;;;;;;;;;;1.30;99.90;;;;;;4177148;28;19935;-48
2022/03/07 05:01:58;;;;;;;;;;;1.30;99.90;;;;;;4173120;28;19952;-46
2022/03/07 05:04:00;;;;;;;;;;;1.40;99.90;;;;;;4173860;28;20205;-45
2022/03/07 05:06:02;;;;;;;;;;;1.30;99.90;;;;;;4163704;28;19929;-45
2022/03/07 05:08:05;;;;;;;;;;;1.30;99.90;;;;;;4176416;28;19932;-48
2022/03/07 05:10:07;;;;;;;;;;;1.40;99.90;;;;;;4173791;28;20404;-46
2022/03/07 05:12:09;;;;;;;;;;;1.40;99.90;;;;;;4170071;28;19942;-46
2022/03/07 05:14:11;;;;;;;;;;;1.50;99.90;;;;;;4174938;28;19929;-46
2022/03/07 05:16:13;;;;;;;;;;;1.40;99.90;;;;;;4176385;28;20389;-48
2022/03/07 05:18:15;;;;;;;;;;;1.50;99.90;;;;;;4170211;28;19932;-46
2022/03/07 05:20:17;;;;;;;;;;;1.50;99.90;;;;;;4173350;28;19932;-45
2022/03/07 05:22:19;;;;;;;;;;;1.50;99.90;;;;;;4178933;28;19924;-45
2022/03/07 05:24:21;;;;;;;;;;;1.50;99.90;;;;;;4170045;28;19929;-47
2022/03/07 05:26:23;;;;;;;;;;;1.40;99.90;;;;;;4191345;28;19939;-45
2022/03/07 05:28:25;;;;;;;;;;;1.50;99.90;;;;;;4170144;28;19929;-45
2022/03/07 05:30:27;;;;;;;;;;;1.50;99.90;;;;;;4165624;28;19935;-47
2022/03/07 05:32:28;;;;;;;;;;;1.50;99.90;;;;;;4179302;28;19924;-45
2022/03/07 05:34:30;;;;;;;;;;;1.40;99.90;;;;;;4177034;28;19924;-45
2022/03/07 05:36:32;;;;;;;;;;;1.50;99.90;;;;;;4178530;28;19928;-45
2022/03/07 05:38:34;;;;;;;;;;;1.50;99.90;;;;;;4176172;28;19932;-45
2022/03/07 05:40:36;;;;;;;;;;;1.50;99.90;;;;;;4174783;28;19928;-45
2022/03/07 05:42:38;;;;;;;;;;;1.40;99.90;;;;;;4174838;28;19925;-45
2022/03/07 05:44:40;;;;;;;;;;;1.40;99.90;;;;;;4171693;28;19979;-45
2022/03/07 05:46:42;;;;;;;;;;;1.40;99.90;;;;;;4172184;28;19942;-46
2022/03/07 05:48:44;;;;;;;;;;;1.40;99.90;;;;;;4178838;28;20125;-45
2022/03/07 05:50:46;;;;;;;;;;;1.40;99.90;;;;;;4175256;28;19932;-46
2022/03/07 05:52:48;;;;;;;;;;;1.50;99.90;;;;;;4175599;28;19929;-48
2022/03/07 05:54:50;;;;;;;;;;;1.50;99.90;;;;;;4177311;28;19925;-46
2022/03/07 05:56:51;;;;;;;;;;;1.60;99.90;;;;;;4178414;28;19939;-45
2022/03/07 05:58:53;;;;;;;;;;;1.70;99.90;;;;;;4172112;28;19936;-48
2022/03/07 06:00:55;;;;;;;;;;;1.70;99.90;;;;;;4172740;28;19936;-46
2022/03/07 06:02:57;;;;;;;;;;;1.70;99.90;;;;;;4171155;28;19961;-47
2022/03/07 06:04:59;;;;;;;;;;;1.70;99.90;;;;;;4176944;28;20031;-47
2022/03/07 06:07:01;;;;;;;;;;;1.80;99.90;;;;;;4175817;28;19963;-45
2022/03/07 06:09:03;;;;;;;;;;;1.90;99.90;;;;;;4176383;28;20039;-45
2022/03/07 06:11:05;;;;;;;;;;;2.00;99.90;;;;;;4176244;28;19932;-44
2022/03/07 06:13:07;;;;;;;;;;;2.00;99.90;;;;;;4163411;28;20355;-45
2022/03/07 06:15:09;;;;;;;;;;;1.90;99.90;;;;;;4169425;28;19929;-47
2022/03/07 06:17:10;;;;;;;;;;;1.90;99.90;;;;;;4171923;28;19925;-46
2022/03/07 06:19:12;;;;;;;;;;;2.00;99.90;;;;;;4166455;28;19944;-45
2022/03/07 06:21:14;;;;;;;;;;;2.00;99.90;;;;;;4174667;28;19935;-45
2022/03/07 06:23:16;;;;;;;;;;;2.00;99.90;;;;;;4176516;28;19933;-48
2022/03/07 06:25:18;;;;;;;;;;;2.00;99.90;;;;;;4175162;28;20278;-46
2022/03/07 06:27:20;;;;;;;;;;;2.00;99.90;;;;;;4176293;28;19935;-48
2022/03/07 06:29:22;;;;;;;;;;;2.00;99.90;;;;;;4172400;28;19929;-47
2022/03/07 06:31:24;;;;;;;;;;;2.00;99.90;;;;;;4163468;28;19940;-48
2022/03/07 06:33:26;;;;;;;;;;;1.90;99.90;;;;;;4171469;28;19925;-50
2022/03/07 06:35:28;;;;;;;;;;;2.00;99.90;;;;;;4167550;28;19933;-47
2022/03/07 06:37:30;;;;;;;;;;;2.00;99.90;;;;;;4177310;28;19929;-48
2022/03/07 06:39:32;;;;;;;;;;;2.00;99.90;;;;;;4177603;28;19935;-49
2022/03/07 06:41:34;;;;;;;;;;;2.00;99.90;;;;;;4175123;28;19948;-48
2022/03/07 06:43:37;;;;;;;;;;;2.00;99.90;;;;;;4177534;28;19928;-49
2022/03/07 06:45:39;;;;;;;;;;;2.10;99.90;;;;;;4176947;28;19924;-50
2022/03/07 06:47:42;;;;;;;;;;;2.10;99.90;;;;;;4177192;28;19928;-50
2022/03/07 06:49:45;;;;;;;;;;;2.10;99.90;;;;;;4175444;28;19931;-51
2022/03/07 06:51:47;;;;;;;;;;;2.10;99.90;;;;;;4174829;28;20015;-48
2022/03/07 06:53:49;;;;;;;;;;;2.20;99.90;;;;;;4169044;28;19986;-48
2022/03/07 06:55:54;;;;;;;;;;;2.30;99.90;;;;;;4176901;28;19929;-50
2022/03/07 06:57:56;;;;;;;;;;;2.30;99.90;;;;;;4177415;28;19929;-49
2022/03/07 06:59:58;;;;;;;;;;;2.40;99.90;;;;;;4175333;28;20437;-48
2022/03/07 07:02:00;;;;;;;;;;;2.40;99.90;;;;;;4175457;28;19960;-48
2022/03/07 07:04:02;;;;;;;;;;;2.40;99.90;;;;;;4176745;28;19929;-49
2022/03/07 07:06:04;;;;;;;;;;;2.30;99.90;;;;;;4174012;28;20376;-51
2022/03/07 07:08:06;;;;;;;;;;;2.40;99.90;;;;;;4175148;28;20368;-49
2022/03/07 07:10:08;;;;;;;;;;;2.40;99.90;;;;;;4165675;28;19924;-48
2022/03/07 07:12:10;;;;;;;;;;;2.50;99.90;;;;;;4177782;28;19955;-50
2022/03/07 07:14:12;;;;;;;;;;;2.50;99.90;;;;;;4175885;28;19929;-47
2022/03/07 07:16:14;;;;;;;;;;;2.60;99.90;;;;;;4173605;28;19929;-50
2022/03/07 07:18:16;;;;;;;;;;;2.60;99.90;;;;;;4174724;28;20439;-50
2022/03/07 07:20:17;;;;;;;;;;;2.70;99.90;;;;;;4168089;28;19932;-48
2022/03/07 07:22:19;;;;;;;;;;;2.70;99.90;;;;;;4164663;28;19925;-50
2022/03/07 07:24:21;;;;;;;;;;;2.80;99.90;;;;;;4167899;28;19935;-48
2022/03/07 07:26:23;;;;;;;;;;;2.90;99.90;;;;;;4163581;28;20323;-51
2022/03/07 07:28:25;;;;;;;;;;;2.90;99.90;;;;;;4170573;28;20020;-47
2022/03/07 07:30:27;;;;;;;;;;;2.90;99.90;;;;;;4173261;28;19925;-49
2022/03/07 07:32:29;;;;;;;;;;;2.90;99.90;;;;;;4170154;28;20346;-48
2022/03/07 07:34:31;;;;;;;;;;;2.90;99.90;;;;;;4175715;28;19925;-50
2022/03/07 07:36:32;;;;;;;;;;;3.00;99.90;;;;;;4160979;28;19929;-47
2022/03/07 07:38:34;;;;;;;;;;;3.00;99.90;;;;;;4175247;28;19925;-50
2022/03/07 07:40:36;;;;;;;;;;;3.10;99.90;;;;;;4175248;28;19936;-50
2022/03/07 07:42:38;;;;;;;;;;;3.20;99.90;;;;;;4163683;28;19925;-49
2022/03/07 07:44:40;;;;;;;;;;;3.20;99.90;;;;;;4172677;28;19931;-49
2022/03/07 07:46:42;;;;;;;;;;;3.30;99.90;;;;;;4176498;28;19928;-48
2022/03/07 07:48:44;;;;;;;;;;;3.30;99.90;;;;;;4169137;28;19987;-50
2022/03/07 07:50:45;;;;;;;;;;;3.40;99.90;;;;;;4174140;28;19925;-49
2022/03/07 07:52:47;;;;;;;;;;;3.40;99.90;;;;;;4177786;28;19931;-48
2022/03/07 07:54:49;;;;;;;;;;;3.40;99.90;;;;;;4175793;28;19929;-48
2022/03/07 07:56:51;;;;;;;;;;;3.40;99.90;;;;;;4170507;28;19931;-48
2022/03/07 07:58:53;;;;;;;;;;;3.40;99.90;;;;;;4162723;28;19933;-48
2022/03/07 08:00:55;;;;;;;;;;;3.40;99.90;;;;;;4165130;28;19929;-50
2022/03/07 08:02:57;;;;;;;;;;;3.50;99.90;;;;;;4175113;28;19972;-49
2022/03/07 08:04:59;;;;;;;;;;;3.50;99.90;;;;;;4174286;28;19936;-50
2022/03/07 08:07:04;;;;;;;;;;;3.50;99.90;;;;;;4169478;28;20023;-49
2022/03/07 08:09:05;;;;;;;;;;;3.70;99.90;;;;;;4176890;28;20040;-47
2022/03/07 08:11:07;;;;;;;;;;;3.80;99.90;;;;;;4175567;28;20411;-47
2022/03/07 08:13:09;;;;;;;;;;;3.80;99.90;;;;;;4174277;28;20020;-48
2022/03/07 08:15:13;;;;;;;;;;;4.00;99.90;;;;;;4174246;28;19927;-47
2022/03/07 08:17:15;;;;;;;;;;;4.10;99.90;;;;;;4162155;28;19979;-48
2022/03/07 08:19:17;;;;;;;;;;;4.10;99.90;;;;;;4175710;28;19924;-48
2022/03/07 08:21:25;;;;;;;;;;;4.30;99.90;;;;;;4175102;28;19929;-49
2022/03/07 08:23:27;;;;;;;;;;;4.20;99.90;;;;;;4174907;28;19986;-48
2022/03/07 08:25:30;;;;;;;;;;;4.40;99.90;;;;;;4173702;28;20350;-48
2022/03/07 08:27:34;;;;;;;;;;;4.50;99.90;;;;;;4176245;28;19929;-47
2022/03/07 08:29:36;;;;;;;;;;;4.30;99.90;;;;;;4175744;28;19925;-50
2022/03/07 08:31:37;;;;;;;;;;;4.10;99.90;;;;;;4172915;28;19928;-48
2022/03/07 08:33:39;;;;;;;;;;;4.10;99.90;;;;;;4161164;28;20051;-47
2022/03/07 08:35:41;;;;;;;;;;;4.10;99.90;;;;;;4165282;28;20024;-48
2022/03/07 08:37:45;;;;;;;;;;;4.00;99.90;;;;;;4170957;28;20478;-48
2022/03/07 08:39:47;;;;;;;;;;;4.20;99.90;;;;;;4167654;28;19929;-49
2022/03/07 08:41:49;;;;;;;;;;;4.00;99.90;;;;;;4171710;28;19933;-50
2022/03/07 08:43:52;;;;;;;;;;;4.00;99.90;;;;;;4175988;28;20027;-48
2022/03/07 08:45:55;;;;;;;;;;;3.90;99.90;;;;;;4174439;28;19932;-47
2022/03/07 08:47:57;;;;;;;;;;;3.90;99.90;;;;;;4173666;28;19978;-47
2022/03/07 08:49:59;;;;;;;;;;;3.90;99.90;;;;;;4174512;28;19929;-47
2022/03/07 08:52:01;;;;;;;;;;;3.90;99.90;;;;;;4163000;28;20373;-48
2022/03/07 08:54:03;;;;;;;;;;;3.90;99.90;;;;;;4168957;28;19933;-49
2022/03/07 08:56:05;;;;;;;;;;;3.90;99.90;;;;;;4169920;28;20292;-48
2022/03/07 08:58:27;;;;;;;;;;;3.80;99.90;;;;;;4169795;28;19939;-49
2022/03/07 09:00:29;;;;;;;;;;;3.80;99.90;;;;;;4164009;28;19929;-50
2022/03/07 09:02:31;;;;;;;;;;;3.80;99.90;;;;;;4177336;28;19933;-48
2022/03/07 09:04:33;;;;;;;;;;;3.80;99.90;;;;;;4177397;28;19971;-49
2022/03/07 09:06:34;;;;;;;;;;;3.80;99.90;;;;;;4175994;28;19933;-47
2022/03/07 09:08:36;;;;;;;;;;;3.90;99.90;;;;;;4179036;28;19945;-48
2022/03/07 09:10:38;;;;;;;;;;;3.90;99.90;;;;;;4168618;28;20019;-46
2022/03/07 09:12:40;;;;;;;;;;;4.00;99.90;;;;;;4173047;28;19933;-47
2022/03/07 09:14:42;;;;;;;;;;;4.10;99.90;;;;;;4177638;28;19928;-50
2022/03/07 09:16:44;;;;;;;;;;;4.00;99.90;;;;;;4175153;28;19929;-49
2022/03/07 09:18:46;;;;;;;;;;;4.00;99.90;;;;;;4177870;28;19948;-48
2022/03/07 09:20:48;;;;;;;;;;;4.10;99.90;;;;;;4176960;28;19928;-50
2022/03/07 09:22:50;;;;;;;;;;;3.90;99.90;;;;;;4177788;28;19964;-49
2022/03/07 09:24:52;;;;;;;;;;;3.80;99.90;;;;;;4179348;28;19928;-49
2022/03/07 09:26:54;;;;;;;;;;;3.80;99.90;;;;;;4167716;28;20118;-49
2022/03/07 09:28:56;;;;;;;;;;;3.80;99.90;;;;;;4171912;28;20407;-47
2022/03/07 09:30:57;;;;;;;;;;;3.90;99.90;;;;;;4168850;28;20028;-48
2022/03/07 09:33:03;;;;;;;;;;;4.00;99.90;;;;;;4171856;28;20266;-47
2022/03/07 09:35:05;;;;;;;;;;;4.10;99.90;;;;;;4178230;28;19935;-50
2022/03/07 09:37:07;;;;;;;;;;;4.00;99.90;;;;;;4177254;28;20371;-47
2022/03/07 09:39:09;;;;;;;;;;;4.00;99.90;;;;;;4168710;28;19929;-47
2022/03/07 09:41:11;;;;;;;;;;;3.90;99.90;;;;;;4177710;28;19928;-49
2022/03/07 09:43:13;;;;;;;;;;;4.20;99.90;;;;;;4164923;28;20389;-49
2022/03/07 09:45:15;;;;;;;;;;;4.30;99.90;;;;;;4172777;28;19931;-48
2022/03/07 09:47:19;;;;;;;;;;;4.30;99.90;;;;;;4169126;28;20337;-50
2022/03/07 09:49:21;;;;;;;;;;;4.30;99.90;;;;;;4168696;28;19928;-47
2022/03/07 09:51:23;;;;;;;;;;;4.30;99.90;;;;;;4176211;28;19936;-48
2022/03/07 09:53:25;;;;;;;;;;;4.20;99.90;;;;;;4165062;28;19936;-47
2022/03/07 09:55:27;;;;;;;;;;;4.30;99.90;;;;;;4169610;28;19959;-49
2022/03/07 09:57:29;;;;;;;;;;;4.30;99.90;;;;;;4178319;28;19925;-51
2022/03/07 09:59:34;;;;;;;;;;;4.30;99.90;;;;;;4163447;28;20126;-51
2022/03/07 10:01:36;;;;;;;;;;;4.30;99.90;;;;;;4167892;28;20016;-48
2022/03/07 10:03:38;;;;;;;;;;;4.20;99.90;;;;;;4170132;28;19924;-51
2022/03/07 10:05:41;;;;;;;;;;;4.10;99.90;;;;;;4166223;28;20075;-48
2022/03/07 10:07:44;;;;;;;;;;;4.10;99.90;;;;;;4178038;28;19924;-48
2022/03/07 10:09:47;;;;;;;;;;;4.20;99.90;;;;;;4176825;28;19932;-48
2022/03/07 10:11:53;;;;;;;;;;;4.20;99.90;;;;;;4172983;28;20404;-49
2022/03/07 10:13:56;;;;;;;;;;;4.30;99.90;;;;;;4175625;28;19939;-48
2022/03/07 10:16:04;;;;;;;;;;;4.40;99.90;;;;;;4178854;28;20301;-50
2022/03/07 10:18:10;;;;;;;;;;;4.30;99.90;;;;;;4170512;28;20367;-48
2022/03/07 10:20:11;;;;;;;;;;;4.10;99.90;;;;;;4172538;28;20392;-48
2022/03/07 10:22:14;;;;;;;;;;;4.10;99.90;;;;;;4167526;28;20399;-48
2022/03/07 10:24:17;;;;;;;;;;;4.10;99.90;;;;;;4163911;28;19937;-49
2022/03/07 10:26:19;;;;;;;;;;;4.10;99.90;;;;;;4170059;28;19928;-47
2022/03/07 10:28:21;;;;;;;;;;;4.10;99.90;;;;;;4165029;28;19935;-49
2022/03/07 10:30:24;;;;;;;;;;;4.00;99.90;;;;;;4166024;28;19936;-48
2022/03/07 10:32:26;;;;;;;;;;;4.10;99.90;;;;;;4163191;28;19925;-47
2022/03/07 10:34:28;;;;;;;;;;;4.10;99.90;;;;;;4165217;28;19925;-48
2022/03/07 10:36:31;;;;;;;;;;;4.20;99.90;;;;;;4164104;28;19976;-47
2022/03/07 10:38:33;;;;;;;;;;;4.20;99.90;;;;;;4164900;28;19929;-47
2022/03/07 10:40:39;;;;;;;;;;;4.20;99.90;;;;;;4165364;28;19935;-50
2022/03/07 10:42:44;;;;;;;;;;;4.30;99.90;;;;;;4162902;28;19979;-48
2022/03/07 10:44:47;;;;;;;;;;;4.30;99.90;;;;;;4175389;28;19948;-50
2022/03/07 10:46:49;;;;;;;;;;;4.30;99.90;;;;;;4168727;28;19933;-47
2022/03/07 10:48:51;;;;;;;;;;;4.20;99.90;;;;;;4163504;28;19933;-48
2022/03/07 10:50:56;;;;;;;;;;;4.20;99.90;;;;;;4175042;28;19929;-47
2022/03/07 10:53:01;;;;;;;;;;;4.30;99.90;;;;;;4172651;28;19924;-51
2022/03/07 10:55:07;;;;;;;;;;;4.40;99.90;;;;;;4167337;28;20034;-48
2022/03/07 10:57:09;;;;;;;;;;;4.50;99.90;;;;;;4164365;28;19932;-50
2022/03/07 10:59:11;;;;;;;;;;;4.50;99.90;;;;;;4163674;28;19924;-48
2022/03/07 11:01:13;;;;;;;;;;;4.50;99.90;;;;;;4168077;28;20455;-48
2022/03/07 11:03:17;;;;;;;;;;;4.60;99.90;;;;;;4164365;28;20469;-48
2022/03/07 11:05:19;;;;;;;;;;;4.60;99.90;;;;;;4171038;28;19933;-49
2022/03/07 11:07:21;;;;;;;;;;;4.70;99.90;;;;;;4166750;28;19928;-51
2022/03/07 11:09:22;;;;;;;;;;;4.80;99.90;;;;;;4172084;28;19936;-49
2022/03/07 11:11:24;;;;;;;;;;;4.70;99.90;;;;;;4165947;28;19932;-48
2022/03/07 11:13:29;;;;;;;;;;;4.60;99.90;;;;;;4166950;28;20003;-47
2022/03/07 11:15:31;;;;;;;;;;;4.60;99.90;;;;;;4167368;28;20008;-49
2022/03/07 11:17:33;;;;;;;;;;;4.60;99.90;;;;;;4162888;28;20359;-47
2022/03/07 11:19:35;;;;;;;;;;;4.60;99.90;;;;;;4173924;28;19929;-49
2022/03/07 11:21:40;;;;;;;;;;;4.70;99.90;;;;;;4175165;28;19925;-49
2022/03/07 11:23:42;;;;;;;;;;;4.70;99.90;;;;;;4167141;28;20301;-49
2022/03/07 11:25:51;;;;;;;;;;;4.80;99.90;;;;;;4165377;28;19930;-48
2022/03/07 11:27:54;;;;;;;;;;;4.80;99.90;;;;;;4167877;28;20302;-48
2022/03/07 11:29:56;;;;;;;;;;;4.80;99.90;;;;;;4175907;28;20343;-47
2022/03/07 11:31:59;;;;;;;;;;;4.70;99.90;;;;;;4174501;28;19929;-50
2022/03/07 11:34:05;;;;;;;;;;;4.70;99.90;;;;;;4174844;28;20015;-48
2022/03/07 11:36:15;;;;;;;;;;;4.80;99.90;;;;;;4178178;28;19964;-49
2022/03/07 11:38:22;;;;;;;;;;;4.90;99.90;;;;;;4164344;28;20015;-49
2022/03/07 11:40:24;;;;;;;;;;;4.90;99.90;;;;;;4168445;28;19939;-49
2022/03/07 11:42:36;;;;;;;;;;;4.80;99.90;;;;;;4169133;28;20039;-47
2022/03/07 11:44:38;;;;;;;;;;;4.90;99.90;;;;;;4175092;28;20015;-50
2022/03/07 11:46:40;;;;;;;;;;;4.90;99.90;;;;;;4169196;28;19924;-48
2022/03/07 11:48:44;;;;;;;;;;;4.90;99.90;;;;;;4175645;28;20338;-47
2022/03/07 11:50:47;;;;;;;;;;;4.80;99.90;;;;;;4170137;28;20026;-48
2022/03/07 11:52:48;;;;;;;;;;;4.80;99.90;;;;;;4175592;28;21223;-49
2022/03/07 11:54:54;;;;;;;;;;;4.90;99.90;;;;;;4162020;28;19936;-49
2022/03/07 11:57:09;;;;;;;;;;;5.10;99.90;;;;;;4172582;28;20377;-48
2022/03/07 11:59:11;;;;;;;;;;;5.10;99.90;;;;;;4169944;28;20211;-48
2022/03/07 12:01:13;;;;;;;;;;;5.00;99.90;;;;;;4163282;28;19975;-47
2022/03/07 12:03:15;;;;;;;;;;;5.20;99.90;;;;;;4165739;28;19925;-49